createdAt,value
2017-09-16T00:01:04.672Z,77.44
2017-09-16T00:02:15.326Z,77.34
2017-09-16T00:03:25.783Z,77.44
2017-09-16T00:04:36.516Z,77.53
2017-09-16T00:05:46.943Z,77.44
2017-09-16T00:06:57.070Z,78.3
2017-09-16T00:08:07.504Z,78.01
2017-09-16T00:09:18.001Z,77.91
2017-09-16T00:10:28.470Z,78.01
2017-09-16T00:11:38.906Z,78.3
2017-09-16T00:12:48.961Z,78.58
2017-09-16T00:13:59.371Z,78.58
2017-09-16T00:15:09.786Z,78.2
2017-09-16T00:16:20.592Z,78.49
2017-09-16T00:17:30.728Z,78.96
2017-09-16T00:18:41.143Z,79.06
2017-09-16T00:19:51.579Z,78.77
2017-09-16T00:21:02.291Z,78.39
2017-09-16T00:22:12.988Z,78.58
2017-09-16T00:23:23.647Z,79.15
2017-09-16T00:24:34.078Z,79.35
2017-09-16T00:25:44.222Z,79.06
2017-09-16T00:26:54.659Z,79.35
2017-09-16T00:28:05.415Z,79.15
2017-09-16T00:29:15.868Z,79.15
2017-09-16T00:30:26.308Z,79.21
2017-09-16T00:31:36.727Z,78.77
2017-09-16T00:32:47.246Z,79.15
2017-09-16T00:33:57.962Z,78.86
2017-09-16T00:35:08.386Z,78.92
2017-09-16T00:36:18.891Z,79.06
2017-09-16T00:37:29.322Z,79.15
2017-09-16T00:38:39.760Z,79.25
2017-09-16T00:39:50.151Z,79.44
2017-09-16T00:41:00.583Z,79.44
2017-09-16T00:42:11.142Z,79.35
2017-09-16T00:43:21.461Z,79.25
2017-09-16T00:44:31.898Z,79.91
2017-09-16T00:45:42.268Z,79.53
2017-09-16T00:46:52.680Z,79.44
2017-09-16T00:48:03.360Z,79.44
2017-09-16T00:49:13.488Z,79.68
2017-09-16T00:50:24.057Z,79.59
2017-09-16T00:51:34.438Z,79.59
2017-09-16T00:52:44.584Z,79.68
2017-09-16T00:53:55.123Z,79.68
2017-09-16T00:55:05.560Z,79.59
2017-09-16T00:56:16.020Z,80.16
2017-09-16T00:57:26.726Z,80.16
2017-09-16T00:58:37.163Z,80.07
2017-09-16T00:59:47.580Z,80.16
2017-09-16T01:00:57.680Z,80.07
2017-09-16T01:02:08.250Z,79.88
2017-09-16T01:03:19.024Z,80.07
2017-09-16T01:04:29.489Z,80.35
2017-09-16T01:05:39.915Z,80.16
2017-09-16T01:06:50.333Z,80.16
2017-09-16T01:08:00.186Z,80.26
2017-09-16T01:09:10.658Z,80.64
2017-09-16T01:10:20.490Z,80.54
2017-09-16T01:11:30.925Z,81.12
2017-09-16T01:12:41.355Z,81.02
2017-09-16T01:13:51.923Z,80.92
2017-09-16T01:15:02.346Z,80.98
2017-09-16T01:16:12.997Z,80.83
2017-09-16T01:17:23.431Z,81.4
2017-09-16T01:18:33.877Z,81.3
2017-09-16T01:19:44.007Z,81.49
2017-09-16T01:20:54.506Z,80.88
2017-09-16T01:22:04.971Z,80.73
2017-09-16T01:23:15.124Z,81.12
2017-09-16T01:24:25.240Z,80.92
2017-09-16T01:25:35.675Z,81.59
2017-09-16T01:26:46.113Z,81.59
2017-09-16T01:27:56.564Z,81.21
2017-09-16T01:29:06.530Z,81.4
2017-09-16T01:30:16.993Z,81.12
2017-09-16T01:31:27.400Z,81.3
2017-09-16T01:32:37.530Z,81.49
2017-09-16T01:33:47.978Z,80.64
2017-09-16T01:34:58.437Z,81.49
2017-09-16T01:36:08.605Z,80.64
2017-09-16T01:37:19.077Z,81.49
2017-09-16T01:38:29.501Z,81.49
2017-09-16T01:39:39.628Z,81.3
2017-09-16T01:40:49.457Z,81.68
2017-09-16T01:41:59.866Z,81.59
2017-09-16T01:43:10.380Z,81.49
2017-09-16T01:44:20.510Z,81.49
2017-09-16T01:45:30.960Z,81.3
2017-09-16T01:46:41.473Z,81.4
2017-09-16T01:47:51.930Z,81.21
2017-09-16T01:49:02.468Z,81.3
2017-09-16T01:50:12.906Z,81.12
2017-09-16T01:51:23.365Z,80.92
2017-09-16T01:52:33.788Z,81.4
2017-09-16T01:53:43.885Z,81.49
2017-09-16T01:54:54.045Z,81.68
2017-09-16T01:56:04.511Z,81.3
2017-09-16T01:57:14.999Z,81.21
2017-09-16T01:58:24.975Z,81.21
2017-09-16T01:59:35.421Z,81.4
2017-09-16T02:00:45.843Z,80.92
2017-09-16T02:01:56.292Z,81.21
2017-09-16T02:03:06.778Z,81.49
2017-09-16T02:04:16.903Z,81.3
2017-09-16T02:05:27.420Z,81.4
2017-09-16T02:06:37.843Z,80.73
2017-09-16T02:07:48.262Z,81.02
2017-09-16T02:08:58.762Z,81.02
2017-09-16T02:10:09.223Z,81.02
2017-09-16T02:11:19.690Z,81.02
2017-09-16T02:12:30.114Z,80.92
2017-09-16T02:13:40.563Z,80.92
2017-09-16T02:14:50.983Z,80.73
2017-09-16T02:16:01.097Z,81.4
2017-09-16T02:17:11.637Z,80.54
2017-09-16T02:18:22.057Z,80.83
2017-09-16T02:19:32.522Z,81.26
2017-09-16T02:20:42.939Z,81.4
2017-09-16T02:21:53.372Z,81.21
2017-09-16T02:23:03.508Z,81.59
2017-09-16T02:24:13.977Z,81.4
2017-09-16T02:25:24.451Z,81.4
2017-09-16T02:26:34.890Z,81.4
2017-09-16T02:27:45.326Z,81.46
2017-09-16T02:28:55.857Z,80.83
2017-09-16T02:30:06.269Z,80.92
2017-09-16T02:31:16.816Z,80.83
2017-09-16T02:32:27.234Z,80.92
2017-09-16T02:33:37.753Z,81.26
2017-09-16T02:34:48.175Z,81.3
2017-09-16T02:35:58.731Z,81.21
2017-09-16T02:37:09.169Z,81.59
2017-09-16T02:38:19.629Z,81.59
2017-09-16T02:39:29.787Z,80.92
2017-09-16T02:40:39.687Z,80.64
2017-09-16T02:41:50.252Z,81.4
2017-09-16T02:43:00.934Z,80.79
2017-09-16T02:44:11.373Z,80.88
2017-09-16T02:45:21.920Z,80.88
2017-09-16T02:46:32.335Z,80.79
2017-09-16T02:47:42.808Z,80.79
2017-09-16T02:48:53.225Z,81.36
2017-09-16T02:50:03.850Z,81.55
2017-09-16T02:51:15.275Z,81.46
2017-09-16T02:52:25.753Z,81.17
2017-09-16T02:53:36.205Z,81.26
2017-09-16T02:54:46.672Z,81.17
2017-09-16T02:55:57.181Z,81.17
2017-09-16T02:57:07.650Z,81.17
2017-09-16T02:58:18.083Z,81.07
2017-09-16T02:59:28.518Z,81.36
2017-09-16T03:00:39.008Z,81.26
2017-09-16T03:01:49.422Z,81.26
2017-09-16T03:02:59.829Z,81.55
2017-09-16T03:04:10.267Z,81.74
2017-09-16T03:05:20.686Z,81.65
2017-09-16T03:06:31.043Z,81.74
2017-09-16T03:07:41.461Z,82.03
2017-09-16T03:08:51.885Z,81.84
2017-09-16T03:10:02.325Z,81.26
2017-09-16T03:11:12.515Z,81.65
2017-09-16T03:12:22.958Z,81.46
2017-09-16T03:13:33.386Z,81.93
2017-09-16T03:14:43.810Z,82.21
2017-09-16T03:15:54.229Z,82.03
2017-09-16T03:17:04.951Z,81.84
2017-09-16T03:18:15.595Z,81.84
2017-09-16T03:19:26.286Z,81.93
2017-09-16T03:20:36.097Z,81.93
2017-09-16T03:21:46.714Z,82.12
2017-09-16T03:22:57.047Z,82.03
2017-09-16T03:24:07.093Z,82.03
2017-09-16T03:25:17.583Z,81.93
2017-09-16T03:26:28.002Z,81.55
2017-09-16T03:27:38.133Z,81.55
2017-09-16T03:28:48.563Z,82.21
2017-09-16T03:29:59.153Z,82.21
2017-09-16T03:31:09.590Z,81.74
2017-09-16T03:32:19.568Z,81.74
2017-09-16T03:33:29.759Z,81.84
2017-09-16T03:34:40.191Z,81.74
2017-09-16T03:35:50.628Z,81.93
2017-09-16T03:37:01.039Z,82.03
2017-09-16T03:38:11.690Z,81.74
2017-09-16T03:39:22.133Z,81.55
2017-09-16T03:40:32.623Z,81.55
2017-09-16T03:41:43.048Z,81.46
2017-09-16T03:42:53.156Z,81.55
2017-09-16T03:44:03.673Z,82.12
2017-09-16T03:45:14.090Z,81.93
2017-09-16T03:46:24.564Z,82.21
2017-09-16T03:47:34.982Z,81.74
2017-09-16T03:48:45.407Z,81.74
2017-09-16T03:49:55.888Z,81.84
2017-09-16T03:51:06.305Z,81.93
2017-09-16T03:52:16.417Z,82.03
2017-09-16T03:53:26.864Z,82.69
2017-09-16T03:54:37.286Z,82.79
2017-09-16T03:55:47.417Z,82.5
2017-09-16T03:56:57.835Z,82.12
2017-09-16T03:58:07.946Z,81.93
2017-09-16T03:59:18.393Z,82.03
2017-09-16T04:00:28.886Z,82.21
2017-09-16T04:01:39.379Z,81.65
2017-09-16T04:02:49.599Z,81.93
2017-09-16T04:04:00.057Z,81.93
2017-09-16T04:05:10.527Z,81.93
2017-09-16T04:06:20.943Z,81.74
2017-09-16T04:07:31.416Z,81.74
2017-09-16T04:08:41.857Z,81.93
2017-09-16T04:09:52.305Z,81.84
2017-09-16T04:11:02.829Z,81.74
2017-09-16T04:12:13.255Z,81.84
2017-09-16T04:13:23.697Z,81.84
2017-09-16T04:14:34.130Z,81.93
2017-09-16T04:15:44.261Z,82.03
2017-09-16T04:16:55.328Z,81.74
2017-09-16T04:18:05.434Z,81.84
2017-09-16T04:19:15.568Z,82.12
2017-09-16T04:20:25.979Z,81.3
2017-09-16T04:21:36.426Z,81.49
2017-09-16T04:22:46.338Z,81.68
2017-09-16T04:23:56.437Z,81.49
2017-09-16T04:25:06.926Z,81.21
2017-09-16T04:26:17.376Z,81.21
2017-09-16T04:27:28.008Z,81.21
2017-09-16T04:28:38.461Z,81.12
2017-09-16T04:29:48.897Z,80.92
2017-09-16T04:30:59.411Z,81.59
2017-09-16T04:32:09.552Z,80.73
2017-09-16T04:33:19.975Z,80.6
2017-09-16T04:34:30.215Z,81.3
2017-09-16T04:35:40.664Z,80.92
2017-09-16T04:36:51.085Z,80.88
2017-09-16T04:38:01.416Z,81.46
2017-09-16T04:39:11.908Z,80.6
2017-09-16T04:40:22.289Z,81.46
2017-09-16T04:41:32.713Z,81.26
2017-09-16T04:42:43.146Z,81.26
2017-09-16T04:43:53.573Z,81.26
2017-09-16T04:45:03.712Z,81.36
2017-09-16T04:46:14.391Z,81.65
2017-09-16T04:47:24.826Z,81.36
2017-09-16T04:48:35.273Z,81.55
2017-09-16T04:49:45.702Z,81.36
2017-09-16T04:50:55.828Z,81.65
2017-09-16T04:52:06.336Z,82.21
2017-09-16T04:53:16.306Z,82.21
2017-09-16T04:54:26.810Z,81.55
2017-09-16T04:55:37.249Z,81.74
2017-09-16T04:56:47.673Z,82.12
2017-09-16T04:57:58.101Z,82.6
2017-09-16T04:59:08.521Z,82.41
2017-09-16T05:00:18.954Z,82.41
2017-09-16T05:01:29.477Z,82.6
2017-09-16T05:02:39.901Z,82.41
2017-09-16T05:03:50.332Z,82.31
2017-09-16T05:05:00.452Z,82.46
2017-09-16T05:06:10.860Z,82.37
2017-09-16T05:07:21.291Z,82.41
2017-09-16T05:08:31.857Z,82.27
2017-09-16T05:09:41.867Z,82.46
2017-09-16T05:10:52.279Z,82.5
2017-09-16T05:12:02.913Z,82.65
2017-09-16T05:13:13.341Z,82.79
2017-09-16T05:14:24.045Z,82.5
2017-09-16T05:15:34.741Z,82.5
2017-09-16T05:16:44.846Z,82.5
2017-09-16T05:17:55.279Z,82.69
2017-09-16T05:19:05.699Z,82.5
2017-09-16T05:20:15.686Z,82.6
2017-09-16T05:21:26.096Z,82.89
2017-09-16T05:22:36.555Z,83.07
2017-09-16T05:23:46.985Z,82.89
2017-09-16T05:24:57.514Z,83.26
2017-09-16T05:26:07.747Z,82.6
2017-09-16T05:27:18.193Z,82.5
2017-09-16T05:28:28.910Z,82.89
2017-09-16T05:29:39.977Z,82.69
2017-09-16T05:30:50.444Z,82.31
2017-09-16T05:32:00.564Z,82.31
2017-09-16T05:33:11.015Z,82.5
2017-09-16T05:34:21.454Z,82.31
2017-09-16T05:35:31.895Z,82.21
2017-09-16T05:36:42.024Z,82.41
2017-09-16T05:37:52.465Z,82.54
2017-09-16T05:39:02.924Z,82.07
2017-09-16T05:40:13.599Z,82.26
2017-09-16T05:41:24.019Z,81.78
2017-09-16T05:42:34.479Z,82.07
2017-09-16T05:43:44.948Z,82.07
2017-09-16T05:44:55.402Z,81.78
2017-09-16T05:46:05.839Z,82.07
2017-09-16T05:47:16.005Z,81.78
2017-09-16T05:48:26.433Z,81.59
2017-09-16T05:49:36.953Z,81.49
2017-09-16T05:50:47.373Z,81.78
2017-09-16T05:51:57.857Z,82.07
2017-09-16T05:53:08.283Z,81.49
2017-09-16T05:54:18.291Z,81.68
2017-09-16T05:55:28.724Z,81.68
2017-09-16T05:56:39.269Z,81.4
2017-09-16T05:57:49.764Z,81.49
2017-09-16T05:59:00.197Z,81.21
2017-09-16T06:00:10.616Z,81.3
2017-09-16T06:01:20.909Z,81.3
2017-09-16T06:02:31.346Z,81.4
2017-09-16T06:03:41.473Z,81.21
2017-09-16T06:04:52.003Z,81.3
2017-09-16T06:06:02.655Z,81.4
2017-09-16T06:07:12.854Z,81.44
2017-09-16T06:08:23.284Z,81.54
2017-09-16T06:09:33.271Z,81.3
2017-09-16T06:10:43.697Z,81.49
2017-09-16T06:11:54.148Z,81.35
2017-09-16T06:13:04.572Z,81.35
2017-09-16T06:14:15.279Z,81.35
2017-09-16T06:15:25.762Z,80.87
2017-09-16T06:16:36.424Z,80.87
2017-09-16T06:17:46.895Z,81.06
2017-09-16T06:18:57.435Z,80.87
2017-09-16T06:20:07.660Z,81.06
2017-09-16T06:21:17.661Z,80.96
2017-09-16T06:22:28.319Z,81.15
2017-09-16T06:23:38.767Z,80.39
2017-09-16T06:24:49.196Z,80.58
2017-09-16T06:25:59.776Z,80.39
2017-09-16T06:27:10.220Z,80.49
2017-09-16T06:28:20.669Z,80.68
2017-09-16T06:29:30.650Z,80.3
2017-09-16T06:30:41.178Z,80.68
2017-09-16T06:31:51.627Z,79.82
2017-09-16T06:33:02.076Z,80.15
2017-09-16T06:34:12.499Z,80.01
2017-09-16T06:35:22.934Z,80.2
2017-09-16T06:36:33.361Z,80.24
2017-09-16T06:37:43.817Z,80.01
2017-09-16T06:38:53.629Z,80.01
2017-09-16T06:40:04.057Z,80.24
2017-09-16T06:41:14.209Z,79.96
2017-09-16T06:42:24.676Z,79.77
2017-09-16T06:43:35.281Z,79.67
2017-09-16T06:44:45.274Z,79.86
2017-09-16T06:45:55.388Z,79.67
2017-09-16T06:47:05.824Z,79.77
2017-09-16T06:48:16.318Z,79.86
2017-09-16T06:49:26.779Z,79.91
2017-09-16T06:50:37.212Z,79.86
2017-09-16T06:51:47.337Z,79.72
2017-09-16T06:52:57.472Z,79.91
2017-09-16T06:54:08.067Z,80.2
2017-09-16T06:55:18.525Z,80.11
2017-09-16T06:56:28.966Z,80.3
2017-09-16T06:57:39.490Z,80.2
2017-09-16T06:58:49.943Z,80.05
2017-09-16T07:00:00.422Z,80.2
2017-09-16T07:01:10.875Z,80.24
2017-09-16T07:02:21.340Z,80.33
2017-09-16T07:03:31.160Z,80.33
2017-09-16T07:04:41.358Z,80.24
2017-09-16T07:05:51.794Z,79.57
2017-09-16T07:07:02.329Z,79.77
2017-09-16T07:08:12.756Z,79.67
2017-09-16T07:09:23.323Z,79.67
2017-09-16T07:10:33.787Z,79.86
2017-09-16T07:11:43.917Z,79.19
2017-09-16T07:12:54.404Z,79.57
2017-09-16T07:14:04.832Z,79.71
2017-09-16T07:15:15.325Z,79.19
2017-09-16T07:16:25.750Z,79.61
2017-09-16T07:17:36.550Z,79.14
2017-09-16T07:18:46.678Z,79.14
2017-09-16T07:19:57.121Z,79.23
2017-09-16T07:21:07.550Z,79.52
2017-09-16T07:22:17.694Z,78.79
2017-09-16T07:23:28.114Z,78.31
2017-09-16T07:24:38.624Z,78.13
2017-09-16T07:25:49.129Z,78.51
2017-09-16T07:26:59.567Z,78.13
2017-09-16T07:28:10.023Z,78.03
2017-09-16T07:29:20.593Z,77.55
2017-09-16T07:30:31.025Z,77.5
2017-09-16T07:31:41.539Z,77.21
2017-09-16T07:32:51.525Z,77.21
2017-09-16T07:34:01.336Z,76.73
2017-09-16T07:35:11.776Z,76.82
2017-09-16T07:36:22.257Z,76.54
2017-09-16T07:37:32.734Z,76.1
2017-09-16T07:38:43.283Z,75.52
2017-09-16T07:39:53.822Z,75.14
2017-09-16T07:41:04.234Z,74.95
2017-09-16T07:42:14.660Z,75.05
2017-09-16T07:43:25.283Z,74.28
2017-09-16T07:44:35.796Z,74.04
2017-09-16T07:45:46.254Z,73.75
2017-09-16T07:46:56.776Z,73.21
2017-09-16T07:48:07.292Z,72.06
2017-09-16T07:49:17.774Z,71.04
2017-09-16T07:50:28.225Z,69.54
2017-09-16T07:51:38.690Z,69.45
2017-09-16T07:52:49.132Z,68.81
2017-09-16T07:53:59.611Z,68.05
2017-09-16T07:55:10.083Z,67.69
2017-09-16T07:56:20.547Z,67.06
2017-09-16T07:57:30.980Z,65.27
2017-09-16T07:58:41.420Z,63.35
2017-09-16T07:59:51.847Z,62.26
2017-09-16T08:01:02.330Z,60.03
2017-09-16T08:02:12.790Z,57.65
2017-09-16T08:03:23.261Z,55.2
2017-09-16T08:04:33.714Z,53.61
2017-09-16T08:05:44.252Z,52.41
2017-09-16T08:06:54.712Z,48.88
2017-09-16T08:08:05.107Z,48.03
2017-09-16T08:09:15.571Z,46.6
2017-09-16T08:10:26.119Z,46.43
2017-09-16T08:11:36.587Z,43.06
2017-09-16T08:12:47.063Z,43.26
2017-09-16T08:13:58.055Z,42.69
2017-09-16T08:15:09.030Z,42.21
2017-09-16T08:16:19.493Z,41.18
2017-09-16T08:17:29.913Z,40.42
2017-09-16T08:18:40.351Z,38.39
2017-09-16T08:19:51.063Z,39.08
2017-09-16T08:21:01.613Z,37.72
2017-09-16T08:22:12.145Z,37.84
2017-09-16T08:23:22.826Z,37.35
2017-09-16T08:24:33.273Z,36.1
2017-09-16T08:25:43.420Z,34.64
2017-09-16T08:26:53.634Z,34.55
2017-09-16T08:28:04.319Z,33.38
2017-09-16T08:29:15.023Z,33.09
2017-09-16T08:30:25.507Z,33.59
2017-09-16T08:31:35.552Z,32.03
2017-09-16T08:32:46.306Z,32.13
2017-09-16T08:33:56.839Z,31.92
2017-09-16T08:35:07.560Z,31.84
2017-09-16T08:36:18.078Z,32.23
2017-09-16T08:37:28.710Z,31.46
2017-09-16T08:38:39.584Z,31.66
2017-09-16T08:39:50.036Z,30.88
2017-09-16T08:41:00.747Z,30
2017-09-16T08:42:10.942Z,30.1
2017-09-16T08:43:21.432Z,30.88
2017-09-16T08:44:32.125Z,30.41
2017-09-16T08:45:42.148Z,30.02
2017-09-16T08:46:53.212Z,29.35
2017-09-16T08:48:03.707Z,29.35
2017-09-16T08:49:13.753Z,28.38
2017-09-16T08:50:24.278Z,29.64
2017-09-16T08:51:35.005Z,28.68
2017-09-16T08:52:45.695Z,28.29
2017-09-16T08:53:56.305Z,27.61
2017-09-16T08:55:06.852Z,27.9
2017-09-16T08:56:17.397Z,27.81
2017-09-16T08:57:27.938Z,27.72
2017-09-16T08:58:38.653Z,26.35
2017-09-16T08:59:48.806Z,26.35
2017-09-16T09:00:58.984Z,26.15
2017-09-16T09:02:09.765Z,26.74
2017-09-16T09:03:20.240Z,26.45
2017-09-16T09:04:30.943Z,26.07
2017-09-16T09:05:41.110Z,26.27
2017-09-16T09:06:51.847Z,25.98
2017-09-16T09:08:02.296Z,26.38
2017-09-16T09:09:12.890Z,25.99
2017-09-16T09:10:23.613Z,26.29
2017-09-16T09:11:34.248Z,25.12
2017-09-16T09:12:44.714Z,25.12
2017-09-16T09:13:55.212Z,25.82
2017-09-16T09:15:05.813Z,24.84
2017-09-16T09:16:16.570Z,24.73
2017-09-16T09:17:27.086Z,24.92
2017-09-16T09:18:37.552Z,24.63
2017-09-16T09:19:48.080Z,24.33
2017-09-16T09:20:59.180Z,23.36
2017-09-16T09:22:09.681Z,24.91
2017-09-16T09:23:20.316Z,24.91
2017-09-16T09:24:30.824Z,24.42
2017-09-16T09:25:40.736Z,25.11
2017-09-16T09:26:51.201Z,24.53
2017-09-16T09:28:01.940Z,24.03
2017-09-16T09:29:12.473Z,25
2017-09-16T09:30:22.675Z,24.89
2017-09-16T09:31:33.211Z,25.36
2017-09-16T09:32:43.664Z,25.75
2017-09-16T09:33:54.413Z,26.04
2017-09-16T09:35:04.567Z,25.74
2017-09-16T09:36:15.075Z,26.03
2017-09-16T09:37:25.652Z,26.2
2017-09-16T09:38:35.923Z,25.9
2017-09-16T09:39:46.577Z,25.69
2017-09-16T09:40:57.074Z,25.89
2017-09-16T09:42:07.752Z,26.67
2017-09-16T09:43:18.344Z,26.19
2017-09-16T09:44:28.506Z,25.99
2017-09-16T09:45:38.931Z,25.91
2017-09-16T09:46:49.392Z,25.42
2017-09-16T09:48:00.014Z,25.03
2017-09-16T09:49:10.471Z,24.45
2017-09-16T09:50:21.181Z,25.81
2017-09-16T09:51:31.879Z,26.09
2017-09-16T09:52:42.175Z,26.47
2017-09-16T09:53:52.858Z,27.51
2017-09-16T09:55:03.432Z,28.07
2017-09-16T09:56:13.907Z,28.43
2017-09-16T09:57:24.291Z,27.36
2017-09-16T09:58:34.757Z,28.43
2017-09-16T09:59:45.228Z,27.94
2017-09-16T10:00:55.794Z,28.72
2017-09-16T10:02:06.273Z,28.72
2017-09-16T10:03:17.161Z,29.28
2017-09-16T10:04:27.650Z,29.66
2017-09-16T10:05:38.288Z,30.04
2017-09-16T10:06:48.596Z,30.79
2017-09-16T10:07:59.346Z,31.25
2017-09-16T10:09:09.679Z,32.39
2017-09-16T10:10:20.252Z,32.47
2017-09-16T10:11:30.769Z,33.14
2017-09-16T10:12:41.234Z,33.62
2017-09-16T10:13:51.758Z,33.5
2017-09-16T10:15:02.456Z,33.52
2017-09-16T10:16:13.064Z,33.15
2017-09-16T10:17:23.228Z,32.97
2017-09-16T10:18:33.834Z,32.89
2017-09-16T10:19:44.287Z,32.89
2017-09-16T10:20:54.988Z,32.79
2017-09-16T10:22:05.678Z,32.89
2017-09-16T10:23:16.147Z,32.7
2017-09-16T10:24:26.625Z,32.7
2017-09-16T10:25:36.842Z,33.07
2017-09-16T10:26:47.523Z,33.44
2017-09-16T10:27:58.023Z,33.81
2017-09-16T10:29:08.492Z,34.18
2017-09-16T10:30:19.090Z,34.38
2017-09-16T10:31:29.564Z,34.47
2017-09-16T10:32:40.390Z,34.56
2017-09-16T10:33:50.903Z,34.56
2017-09-16T10:35:01.501Z,34.94
2017-09-16T10:36:12.014Z,35.03
2017-09-16T10:37:22.458Z,35.02
2017-09-16T10:38:33.154Z,35.21
2017-09-16T10:39:43.783Z,34.94
2017-09-16T10:40:54.243Z,35.05
2017-09-16T10:42:04.757Z,35.34
2017-09-16T10:43:15.213Z,35.24
2017-09-16T10:44:25.921Z,35.53
2017-09-16T10:45:36.175Z,35.9
2017-09-16T10:46:46.668Z,36.36
2017-09-16T10:47:56.958Z,36.55
2017-09-16T10:49:06.769Z,37.5
2017-09-16T10:50:17.571Z,37.68
2017-09-16T10:51:28.060Z,38.35
2017-09-16T10:52:38.562Z,38.06
2017-09-16T10:53:49.047Z,38.26
2017-09-16T10:54:59.588Z,38.72
2017-09-16T10:56:10.320Z,38.72
2017-09-16T10:57:20.785Z,38.64
2017-09-16T10:58:31.314Z,39.41
2017-09-16T10:59:41.466Z,39.03
2017-09-16T11:00:51.926Z,39.22
2017-09-16T11:02:02.355Z,39.12
2017-09-16T11:03:12.667Z,39.22
2017-09-16T11:04:23.144Z,38.64
2017-09-16T11:05:33.166Z,38.54
2017-09-16T11:06:43.757Z,39.41
2017-09-16T11:07:54.603Z,39.22
2017-09-16T11:09:05.305Z,39.12
2017-09-16T11:10:16.950Z,39.14
2017-09-16T11:11:27.422Z,39.04
2017-09-16T11:12:37.903Z,38.66
2017-09-16T11:13:48.815Z,39.24
2017-09-16T11:14:59.335Z,38.46
2017-09-16T11:16:09.772Z,38.28
2017-09-16T11:17:20.279Z,37.98
2017-09-16T11:18:30.742Z,38.46
2017-09-16T11:19:41.502Z,38.54
2017-09-16T11:20:51.203Z,39.31
2017-09-16T11:22:01.659Z,39.51
2017-09-16T11:23:11.812Z,39.41
2017-09-16T11:24:22.471Z,39.31
2017-09-16T11:25:33.568Z,39.7
2017-09-16T11:26:44.018Z,39.89
2017-09-16T11:27:54.500Z,39.78
2017-09-16T11:29:04.688Z,39.87
2017-09-16T11:30:15.207Z,39.87
2017-09-16T11:31:26.204Z,39.97
2017-09-16T11:32:36.639Z,39.86
2017-09-16T11:33:47.220Z,40.24
2017-09-16T11:34:57.677Z,40.53
2017-09-16T11:36:08.163Z,40.43
2017-09-16T11:37:18.570Z,40.43
2017-09-16T11:38:29.115Z,40.8
2017-09-16T11:39:39.719Z,41.08
2017-09-16T11:40:50.194Z,40.89
2017-09-16T11:42:00.967Z,41.56
2017-09-16T11:43:11.872Z,41.66
2017-09-16T11:44:22.348Z,41.3
2017-09-16T11:45:31.411Z,41.59
2017-09-16T11:46:42.107Z,41.39
2017-09-16T11:47:52.612Z,41.2
2017-09-16T11:49:03.318Z,41.59
2017-09-16T11:50:13.811Z,40.81
2017-09-16T11:51:24.420Z,41.01
2017-09-16T11:52:34.880Z,41.2
2017-09-16T11:53:45.419Z,41.39
2017-09-16T11:54:56.122Z,41.2
2017-09-16T11:56:06.675Z,40.45
2017-09-16T11:57:17.396Z,39.61
2017-09-16T11:58:28.070Z,39.51
2017-09-16T11:59:38.569Z,39.06
2017-09-16T12:00:49.421Z,37.15
2017-09-16T12:02:00.143Z,36.4
2017-09-16T12:03:10.609Z,35.64
2017-09-16T12:04:20.833Z,35.08
2017-09-16T12:05:31.291Z,33.45
2017-09-16T12:06:42.283Z,34.44
2017-09-16T12:07:53.948Z,33.1
2017-09-16T12:09:04.695Z,32.64
2017-09-16T12:10:15.149Z,31.01
2017-09-16T12:11:25.615Z,30.24
2017-09-16T12:12:37.181Z,30.26
2017-09-16T12:13:47.663Z,30.16
2017-09-16T12:14:57.823Z,29.97
2017-09-16T12:16:08.311Z,30.18
2017-09-16T12:17:18.829Z,28.14
2017-09-16T12:18:29.550Z,27.73
2017-09-16T12:19:40.054Z,29.38
2017-09-16T12:20:50.523Z,29.57
2017-09-16T12:22:01.085Z,30.13
2017-09-16T12:23:11.857Z,30.41
2017-09-16T12:24:22.906Z,30.78
2017-09-16T12:25:33.460Z,30.76
2017-09-16T12:26:43.976Z,30.66
2017-09-16T12:27:54.508Z,30.94
2017-09-16T12:29:04.983Z,31.41
2017-09-16T12:30:15.766Z,31.88
2017-09-16T12:31:26.290Z,32.36
2017-09-16T12:32:36.512Z,32.24
2017-09-16T12:33:47.074Z,32.92
2017-09-16T12:34:57.273Z,32.82
2017-09-16T12:36:07.997Z,32.73
2017-09-16T12:37:18.481Z,32.73
2017-09-16T12:38:28.941Z,33.02
2017-09-16T12:39:39.412Z,32.84
2017-09-16T12:40:49.890Z,33.14
2017-09-16T12:42:00.603Z,32.84
2017-09-16T12:43:10.605Z,33.04
2017-09-16T12:44:21.093Z,32.75
2017-09-16T12:45:31.259Z,32.26
2017-09-16T12:46:41.737Z,32.84
2017-09-16T12:47:52.547Z,32.84
2017-09-16T12:49:03.022Z,32.56
2017-09-16T12:50:13.592Z,33.04
2017-09-16T12:51:23.887Z,33.02
2017-09-16T12:52:34.420Z,33.22
2017-09-16T12:53:45.176Z,33.6
2017-09-16T12:54:55.655Z,33.5
2017-09-16T12:56:06.245Z,33.78
2017-09-16T12:57:16.853Z,34.36
2017-09-16T12:58:27.419Z,34.36
2017-09-16T12:59:38.201Z,34.26
2017-09-16T13:00:49.014Z,34.26
2017-09-16T13:01:59.501Z,34.26
2017-09-16T13:03:09.976Z,34.34
2017-09-16T13:04:19.996Z,34.53
2017-09-16T13:05:30.388Z,35.11
2017-09-16T13:06:41.077Z,35.21
2017-09-16T13:07:51.563Z,35.11
2017-09-16T13:09:02.063Z,35.3
2017-09-16T13:10:12.671Z,35.3
2017-09-16T13:11:23.491Z,35.67
2017-09-16T13:12:33.510Z,35.77
2017-09-16T13:13:43.973Z,35.86
2017-09-16T13:14:54.695Z,36.15
2017-09-16T13:16:05.283Z,36.25
2017-09-16T13:17:15.992Z,36.35
2017-09-16T13:18:26.465Z,36.52
2017-09-16T13:19:36.979Z,36.61
2017-09-16T13:20:47.472Z,36.61
2017-09-16T13:21:57.618Z,36.43
2017-09-16T13:23:08.091Z,36.61
2017-09-16T13:24:18.612Z,37.48
2017-09-16T13:25:29.095Z,37.19
2017-09-16T13:26:39.587Z,37.29
2017-09-16T13:27:50.044Z,37.39
2017-09-16T13:29:00.760Z,37.46
2017-09-16T13:30:11.299Z,37.56
2017-09-16T13:31:21.479Z,37.37
2017-09-16T13:32:32.762Z,37.08
2017-09-16T13:33:43.231Z,36.99
2017-09-16T13:34:53.952Z,37.18
2017-09-16T13:36:04.426Z,37.46
2017-09-16T13:37:14.922Z,37.83
2017-09-16T13:38:25.118Z,37.93
2017-09-16T13:39:35.612Z,38.29
2017-09-16T13:40:46.383Z,38.39
2017-09-16T13:41:56.541Z,38.49
2017-09-16T13:43:06.996Z,39.26
2017-09-16T13:44:17.454Z,39.64
2017-09-16T13:45:27.915Z,39.36
2017-09-16T13:46:38.336Z,39.36
2017-09-16T13:47:48.821Z,39.36
2017-09-16T13:48:59.314Z,39.16
2017-09-16T13:50:09.789Z,39.64
2017-09-16T13:51:20.313Z,40.2
2017-09-16T13:52:31.042Z,40.58
2017-09-16T13:53:41.234Z,40.3
2017-09-16T13:54:51.507Z,40.88
2017-09-16T13:56:02.061Z,40.49
2017-09-16T13:57:12.629Z,40.97
2017-09-16T13:58:23.017Z,41.16
2017-09-16T13:59:33.497Z,41.35
2017-09-16T14:00:43.994Z,41.35
2017-09-16T14:01:54.161Z,41.16
2017-09-16T14:03:04.832Z,41.35
2017-09-16T14:04:15.538Z,41.26
2017-09-16T14:05:26.032Z,41.06
2017-09-16T14:06:36.519Z,41.06
2017-09-16T14:07:46.960Z,41.16
2017-09-16T14:08:57.528Z,41.28
2017-09-16T14:10:08.248Z,41.26
2017-09-16T14:11:18.730Z,41.28
2017-09-16T14:12:29.195Z,41.28
2017-09-16T14:13:39.654Z,41.26
2017-09-16T14:14:50.147Z,41.38
2017-09-16T14:16:00.951Z,41.56
2017-09-16T14:17:10.979Z,41.47
2017-09-16T14:18:21.129Z,41.56
2017-09-16T14:19:31.601Z,41.86
2017-09-16T14:20:42.130Z,41.76
2017-09-16T14:21:52.837Z,41.76
2017-09-16T14:23:03.054Z,41.76
2017-09-16T14:24:13.530Z,41.47
2017-09-16T14:25:24.048Z,41.38
2017-09-16T14:26:34.545Z,41.66
2017-09-16T14:27:45.325Z,42.14
2017-09-16T14:28:55.789Z,42.24
2017-09-16T14:30:06.296Z,41.66
2017-09-16T14:31:16.787Z,41.76
2017-09-16T14:32:27.249Z,41.76
2017-09-16T14:33:37.997Z,41.66
2017-09-16T14:34:48.519Z,41.56
2017-09-16T14:35:58.688Z,41.76
2017-09-16T14:37:09.143Z,41.86
2017-09-16T14:38:19.622Z,41.76
2017-09-16T14:39:30.447Z,42.24
2017-09-16T14:40:40.922Z,42.14
2017-09-16T14:41:51.526Z,41.93
2017-09-16T14:43:01.985Z,42.22
2017-09-16T14:44:12.483Z,42.12
2017-09-16T14:45:22.874Z,41.93
2017-09-16T14:46:33.420Z,41.74
2017-09-16T14:47:43.898Z,42.03
2017-09-16T14:48:54.403Z,42.03
2017-09-16T14:50:05.014Z,42.32
2017-09-16T14:51:15.786Z,42.22
2017-09-16T14:52:26.247Z,42.32
2017-09-16T14:53:36.730Z,42.32
2017-09-16T14:54:47.246Z,42.32
2017-09-16T14:55:57.726Z,42.22
2017-09-16T14:57:08.621Z,42.5
2017-09-16T14:58:19.133Z,42.22
2017-09-16T14:59:29.690Z,42.7
2017-09-16T15:00:40.204Z,43.76
2017-09-16T15:01:50.248Z,43.35
2017-09-16T15:03:00.947Z,44.12
2017-09-16T15:04:11.462Z,43.95
2017-09-16T15:05:21.947Z,43.47
2017-09-16T15:06:32.516Z,43.84
2017-09-16T15:07:43.261Z,43.74
2017-09-16T15:08:53.986Z,43.74
2017-09-16T15:10:04.480Z,43.64
2017-09-16T15:11:15.182Z,43.54